Aérodrome :
LOGIN :

S'inscrire | Disclaimer

   EN    FR    IT 

 










Légende :    VFR   VFR Marginal   IFR   IFR Intensif   IFR Très Intensif
Visi : 
Plafond : 
>= 8 km
>= 3000ft
5 à 8 km
1000 à 3000 ft
1500m à 5 km
500 à 1000 ft
800 à 1500m
200 à 500 ft
< 800m
< 200 ft
Symboles :   Orages  Brouillard  Fortes neiges  Fortes précipitations  Vent > 20 kt
SIGMETs :   Divers  Orages  Givrage  Turbulence  Onde Orograph.  Cendres Volcan.







- Altitude de l'aérodrome : 122 ft
- Code IATA : TXL


EDDT - Berlin Tegel Int.

DERNIER METAR :
  • 210420Z 04004KT 360V090 7000 BKN004 BKN070 M00/M01 Q1006 TEMPO 4000 BR

METARs EXPIRÉS :
  • 210350Z 04004KT 010V080 8000 FEW004 BKN070 M00/M01 Q1006 TEMPO 4000 BKN004
  • 210320Z 04004KT 360V080 9000 NSC M00/M01 Q1005
  • 210250Z 05004KT 020V090 9000 NSC M00/M01 Q1005
  • 210220Z 04003KT 360V100 CAVOK M00/M01 Q1005
  • 210150Z VRB02KT 9999 FEW030 BKN070 M00/M01 Q1005

TAF COR TAF EDDT
Valide du 21 à 00h jusqu'au 22 à 00h UTC


202343Z 2100/2124 07006KT 7000 BKN045
BECMG 2100/2104 3500 BR BKN007
PROB30
TEMPO 2100/2108 2000 BR BKN003
BECMG 2106/2110 01004KT BKN013
BECMG 2110/2114 13005KT SCT012 BKN020
Pas de NOTAMs connus pour ce terrain.



MET'MAP, la Météo Aéronautique d'un coup d'oeil ! - Copyright ORBIFLY Décembre 2007 - Disclaimer

ORBIFLY MET'MAP TEAM :

Programmation & Développement : Alexandra Zaïnal
Conception & Développement : Baudouin d'Aumeries
Co-Programmation & Développement : Marc-Olivier Méhu
Soutien technique & logistique : Manuel Goepfert

Contact : metmap@orbifly.com




SOURCES & CREDITS :

   NOAA